createdAt,value
2023-05-10T03:29:09.791Z,96939.03
2023-05-10T03:31:36.300Z,96931.66
2023-05-10T03:34:02.903Z,96942.84
2023-05-10T03:36:29.324Z,96945.91
2023-05-10T03:38:55.876Z,96947.41
2023-05-10T03:41:22.492Z,96945.13
2023-05-10T03:43:49.068Z,96937.75
2023-05-10T03:46:15.568Z,96945.91
2023-05-10T03:48:42.009Z,96954.88
2023-05-10T03:51:09.119Z,96950.66
2023-05-10T03:53:35.832Z,96951.00
2023-05-10T03:56:02.279Z,96958.38
2023-05-10T03:58:28.814Z,96958.47
2023-05-10T04:00:55.278Z,96961.19
2023-05-10T04:03:21.928Z,96957.09
2023-05-10T04:05:48.471Z,96956.03
2023-05-10T04:08:14.933Z,96957.31
2023-05-10T04:10:41.412Z,96961.38
2023-05-10T04:13:07.989Z,96956.06
2023-05-10T04:15:34.521Z,96965.88
2023-05-10T04:18:01.050Z,96970.09
2023-05-10T04:20:27.529Z,96958.91
2023-05-10T04:22:54.026Z,96957.63
2023-05-10T04:25:20.486Z,96965.53
2023-05-10T04:27:46.923Z,96954.34
2023-05-10T04:30:13.380Z,96956.56
2023-05-10T04:32:39.915Z,96956.06
2023-05-10T04:35:06.443Z,96955.13
2023-05-10T04:37:32.879Z,96949.59
2023-05-10T04:39:59.271Z,96948.59
2023-05-10T04:42:25.924Z,96942.31
2023-05-10T04:44:52.326Z,96940.28
2023-05-10T04:47:18.798Z,96939.09
2023-05-10T04:49:45.208Z,96936.69
2023-05-10T04:52:11.652Z,96938.25
2023-05-10T04:54:38.050Z,96937.81
2023-05-10T04:57:06.467Z,96934.75
2023-05-10T04:59:32.922Z,96947.06
2023-05-10T05:01:59.472Z,96948.59
2023-05-10T05:04:25.999Z,96949.34
2023-05-10T05:06:54.029Z,96944.25
2023-05-10T05:09:20.707Z,96946.13
2023-05-10T05:11:47.216Z,96948.94
2023-05-10T05:14:13.709Z,96953.69
2023-05-10T05:16:40.333Z,96949.88
2023-05-10T05:19:06.963Z,96954.72
2023-05-10T05:21:33.460Z,96959.53
2023-05-10T05:23:59.973Z,96968.59
2023-05-10T05:26:26.580Z,96965.75
2023-05-10T05:28:53.095Z,96963.53
2023-05-10T05:31:19.630Z,96962.88
2023-05-10T05:33:46.107Z,96958.44
2023-05-10T05:36:12.574Z,96961.56
2023-05-10T05:38:39.085Z,96965.56
2023-05-10T05:41:05.597Z,96961.56
2023-05-10T05:43:32.045Z,96971.69
2023-05-10T05:45:58.664Z,96975.34
2023-05-10T05:48:25.298Z,96967.44
2023-05-10T05:50:51.726Z,96972.41
2023-05-10T05:53:18.196Z,96975.84
2023-05-10T05:55:44.637Z,96970.00
2023-05-10T05:58:11.164Z,96973.50
2023-05-10T06:00:37.743Z,96969.13
2023-05-10T06:03:04.357Z,96978.81
2023-05-10T06:05:30.993Z,96971.69
2023-05-10T06:07:57.493Z,96973.66
2023-05-10T06:10:23.914Z,96970.94
2023-05-10T06:12:50.412Z,96972.38
2023-05-10T06:15:16.971Z,96972.38
2023-05-10T06:17:43.508Z,96970.31
2023-05-10T06:20:10.040Z,96962.84
2023-05-10T06:22:36.454Z,96972.09
2023-05-10T06:25:02.982Z,96964.72
2023-05-10T06:27:29.481Z,96968.28
2023-05-10T06:30:02.198Z,96973.38
2023-05-10T06:32:36.048Z,96976.97
2023-05-10T06:35:02.585Z,96979.25
2023-05-10T06:37:29.069Z,96980.41
2023-05-10T06:39:55.601Z,96978.06
2023-05-10T06:42:22.057Z,96974.91
2023-05-10T06:44:48.565Z,96980.00
2023-05-10T06:47:15.163Z,96980.72
2023-05-10T06:49:41.700Z,96979.00
2023-05-10T06:52:08.183Z,96987.28
2023-05-10T06:54:34.871Z,96984.94
2023-05-10T06:57:03.103Z,96989.28
2023-05-10T06:59:30.505Z,96997.84
2023-05-10T07:01:56.999Z,96992.81
2023-05-10T07:04:23.537Z,96989.50
2023-05-10T07:06:49.988Z,96984.00
2023-05-10T07:09:16.513Z,96988.81
2023-05-10T07:11:43.048Z,96984.41
2023-05-10T07:14:09.929Z,96997.94
2023-05-10T07:16:36.517Z,96991.28
2023-05-10T07:19:03.197Z,96993.69
2023-05-10T07:21:29.792Z,96995.13
2023-05-10T07:23:56.433Z,96992.72
2023-05-10T07:26:22.955Z,96995.44
2023-05-10T07:28:49.492Z,96994.47
2023-05-10T07:31:16.204Z,96998.72
2023-05-10T07:33:42.640Z,96999.53
2023-05-10T07:36:09.129Z,97002.59
2023-05-10T07:38:35.765Z,97005.66
2023-05-10T07:41:02.225Z,97006.88
2023-05-10T07:43:28.658Z,96998.94
2023-05-10T07:45:56.424Z,97005.91
2023-05-10T07:48:23.019Z,97010.56
2023-05-10T07:50:49.670Z,97016.00
2023-05-10T07:53:16.342Z,97020.78
2023-05-10T07:55:42.759Z,97018.16
2023-05-10T07:58:09.191Z,97013.09
2023-05-10T08:00:35.688Z,97013.22
2023-05-10T08:03:02.447Z,97007.38
2023-05-10T08:05:29.030Z,97010.25
2023-05-10T08:07:55.616Z,97011.28
2023-05-10T08:10:22.201Z,97003.78
2023-05-10T08:12:48.673Z,97013.16
2023-05-10T08:15:15.286Z,97013.38
2023-05-10T08:17:42.109Z,97006.25
2023-05-10T08:20:08.615Z,97006.16
2023-05-10T08:22:35.047Z,97008.19
2023-05-10T08:25:01.532Z,97011.94
2023-05-10T08:27:27.980Z,97015.59
2023-05-10T08:29:54.383Z,97016.19
2023-05-10T08:32:20.824Z,97012.63
2023-05-10T08:34:47.278Z,97011.09
2023-05-10T08:37:15.989Z,97014.16
2023-05-10T08:39:42.467Z,97014.16
2023-05-10T08:42:09.381Z,97002.34
2023-05-10T08:44:36.020Z,97009.81
2023-05-10T08:47:02.545Z,97017.91
2023-05-10T08:49:29.118Z,97023.66
2023-05-10T08:51:55.678Z,97019.75
2023-05-10T08:54:22.274Z,97033.75
2023-05-10T08:56:49.683Z,97039.34
2023-05-10T08:59:16.448Z,97031.63
2023-05-10T09:01:42.959Z,97032.81
2023-05-10T09:04:09.485Z,97033.50
2023-05-10T09:06:36.024Z,97034.25
2023-05-10T09:09:02.480Z,97035.91
2023-05-10T09:11:28.915Z,97038.34
2023-05-10T09:13:55.408Z,97033.19
2023-05-10T09:16:22.593Z,97027.22
2023-05-10T09:18:49.257Z,97026.50
2023-05-10T09:21:15.757Z,97036.69
2023-05-10T09:23:42.284Z,97031.50
2023-05-10T09:26:08.866Z,97036.78
2023-05-10T09:28:35.365Z,97046.06
2023-05-10T09:31:01.813Z,97042.78
2023-05-10T09:33:28.326Z,97041.91
2023-05-10T09:35:54.798Z,97048.63
2023-05-10T09:38:21.318Z,97048.00
2023-05-10T09:40:47.758Z,97037.06
2023-05-10T09:43:14.185Z,97037.16
2023-05-10T09:45:40.761Z,97041.31
2023-05-10T09:48:07.534Z,97037.84
2023-05-10T09:50:34.257Z,97039.50
2023-05-10T09:53:00.782Z,97034.22
2023-05-10T09:55:27.277Z,97039.19
2023-05-10T09:57:53.716Z,97034.31
2023-05-10T10:00:20.231Z,97030.75
2023-05-10T10:02:46.783Z,97027.41
2023-05-10T10:05:13.364Z,97032.84
2023-05-10T10:07:39.837Z,97029.16
2023-05-10T10:10:06.264Z,97026.66
2023-05-10T10:12:32.745Z,97021.78
2023-05-10T10:14:59.186Z,97032.66
2023-05-10T10:17:25.614Z,97026.63
2023-05-10T10:19:52.504Z,97022.81
2023-05-10T10:22:19.132Z,97023.91
2023-05-10T10:24:45.662Z,97018.75
2023-05-10T10:27:12.134Z,97020.59
2023-05-10T10:29:38.566Z,97021.38
2023-05-10T10:32:04.985Z,97024.16
2023-05-10T10:34:31.423Z,97019.72
2023-05-10T10:36:57.860Z,97017.69
2023-05-10T10:39:24.381Z,97026.19
2023-05-10T10:41:50.863Z,97029.41
2023-05-10T10:44:17.358Z,97020.31
2023-05-10T10:46:43.862Z,97027.34
2023-05-10T10:49:10.361Z,97031.09
2023-05-10T10:51:36.832Z,97027.00
2023-05-10T10:54:03.348Z,97022.84
2023-05-10T10:56:29.867Z,97025.66
2023-05-10T10:58:56.292Z,97021.25
2023-05-10T11:01:22.740Z,97016.66
2023-05-10T11:03:49.306Z,97015.56
2023-05-10T11:06:15.791Z,97015.47
2023-05-10T11:08:42.303Z,97008.69
2023-05-10T11:11:08.807Z,97012.75
2023-05-10T11:13:35.281Z,97017.59
2023-05-10T11:16:01.805Z,97013.19
2023-05-10T11:18:28.409Z,97016.47
2023-05-10T11:20:54.946Z,97003.25
2023-05-10T11:23:21.362Z,97012.84
2023-05-10T11:25:47.929Z,97005.38
2023-05-10T11:28:14.492Z,97000.72
2023-05-10T11:30:41.019Z,97002.41
2023-05-10T11:33:07.579Z,96997.63
2023-05-10T11:35:34.122Z,97006.41
2023-05-10T11:38:00.575Z,97008.00
2023-05-10T11:40:27.052Z,97012.09
2023-05-10T11:42:53.479Z,97008.78
2023-05-10T11:45:20.008Z,97002.75
2023-05-10T11:47:46.590Z,97013.06
2023-05-10T11:50:13.055Z,97014.50
2023-05-10T11:52:39.575Z,97012.09
2023-05-10T11:55:06.065Z,97013.13
2023-05-10T11:57:32.552Z,97009.91
2023-05-10T11:59:59.049Z,97013.22
2023-05-10T12:02:25.717Z,97007.38
2023-05-10T12:04:52.363Z,97014.56
2023-05-10T12:07:18.952Z,97004.31
2023-05-10T12:09:45.422Z,97010.22
2023-05-10T12:12:11.860Z,97004.16
2023-05-10T12:14:38.288Z,97006.50
2023-05-10T12:17:04.722Z,97003.28
2023-05-10T12:19:31.245Z,97011.19
2023-05-10T12:21:57.679Z,97009.16
2023-05-10T12:24:24.141Z,97009.22
2023-05-10T12:26:50.574Z,97012.28
2023-05-10T12:29:17.005Z,97011.59
2023-05-10T12:31:43.495Z,97013.91
2023-05-10T12:34:09.933Z,97010.25
2023-05-10T12:36:36.415Z,97008.78
2023-05-10T12:39:02.824Z,97011.25
2023-05-10T12:41:29.236Z,97019.06
2023-05-10T12:43:55.694Z,97011.53
2023-05-10T12:46:22.124Z,97017.38
2023-05-10T12:48:48.595Z,97019.25
2023-05-10T12:51:15.069Z,97022.31
2023-05-10T12:53:43.684Z,97019.94
2023-05-10T12:56:11.607Z,97014.31
2023-05-10T12:58:38.054Z,97015.19
2023-05-10T13:01:04.628Z,97013.13
2023-05-10T13:03:31.080Z,97022.91
2023-05-10T13:05:57.676Z,97021.63
2023-05-10T13:08:24.099Z,97019.94
2023-05-10T13:10:50.608Z,97033.00
2023-05-10T13:13:17.073Z,97023.84
2023-05-10T13:15:43.692Z,97021.03
2023-05-10T13:18:10.206Z,97017.53
2023-05-10T13:20:36.696Z,97022.81
2023-05-10T13:23:03.114Z,97013.09
2023-05-10T13:25:29.584Z,97020.16
2023-05-10T13:27:56.039Z,97021.59
2023-05-10T13:30:22.458Z,97029.03
2023-05-10T13:32:48.892Z,97017.81
2023-05-10T13:35:15.376Z,97022.09
2023-05-10T13:37:41.820Z,97020.72
2023-05-10T13:40:08.318Z,97022.50
2023-05-10T13:42:34.895Z,97020.59
2023-05-10T13:45:04.093Z,97026.16
2023-05-10T13:47:30.623Z,97022.75
2023-05-10T13:49:57.073Z,97025.84
2023-05-10T13:52:23.513Z,97029.06
2023-05-10T13:54:50.017Z,97026.53
2023-05-10T13:57:16.475Z,97015.91
2023-05-10T13:59:42.949Z,97019.06
2023-05-10T14:02:09.449Z,97014.97
2023-05-10T14:04:35.942Z,97015.59
2023-05-10T14:07:02.355Z,97013.69
2023-05-10T14:09:28.789Z,97018.31
2023-05-10T14:11:55.264Z,97017.00
2023-05-10T14:14:21.693Z,97009.22
2023-05-10T14:16:48.182Z,97010.38
2023-05-10T14:19:14.713Z,97008.41
2023-05-10T14:21:41.176Z,97013.44
2023-05-10T14:24:07.645Z,97007.84
2023-05-10T14:26:34.103Z,97008.63
2023-05-10T14:29:00.550Z,97004.25
2023-05-10T14:31:27.104Z,97003.84
2023-05-10T14:33:53.621Z,97009.38
2023-05-10T14:36:20.029Z,97004.31
2023-05-10T14:38:46.434Z,97005.22
2023-05-10T14:41:12.877Z,97001.47
2023-05-10T14:43:39.332Z,97000.03
2023-05-10T14:46:05.794Z,97002.78
2023-05-10T14:48:32.260Z,97003.94
2023-05-10T14:50:58.697Z,96997.66
2023-05-10T14:53:25.135Z,97000.19
2023-05-10T14:55:51.605Z,97011.03
2023-05-10T14:58:18.034Z,97002.66
2023-05-10T15:00:44.463Z,97013.78
2023-05-10T15:03:11.736Z,97016.00
2023-05-10T15:05:38.529Z,97015.47
2023-05-10T15:08:04.982Z,97011.38
2023-05-10T15:10:33.780Z,97014.91
2023-05-10T15:13:00.846Z,97018.03
2023-05-10T15:15:27.361Z,97006.41
2023-05-10T15:17:53.880Z,97013.69
2023-05-10T15:20:20.395Z,97010.59
2023-05-10T15:22:46.823Z,97008.56
2023-05-10T15:25:13.413Z,97014.41
2023-05-10T15:27:39.916Z,97005.75
2023-05-10T15:30:06.369Z,97010.72
2023-05-10T15:32:32.823Z,97015.28
2023-05-10T15:34:59.356Z,97016.16
2023-05-10T15:37:25.818Z,97013.38
2023-05-10T15:39:52.253Z,97017.09
2023-05-10T15:42:18.753Z,97021.78
2023-05-10T15:44:45.201Z,97024.41
2023-05-10T15:47:11.800Z,97019.25
2023-05-10T15:49:38.251Z,97019.66
2023-05-10T15:52:04.785Z,97019.06
2023-05-10T15:54:31.257Z,97030.97
2023-05-10T15:56:57.755Z,96983.59
2023-05-10T15:59:24.228Z,96983.50
2023-05-10T16:01:50.744Z,96988.41
2023-05-10T16:04:17.245Z,96979.44
2023-05-10T16:06:43.724Z,96990.00
2023-05-10T16:09:10.246Z,97033.00
2023-05-10T16:11:36.792Z,97030.09
2023-05-10T16:14:03.285Z,97035.81
2023-05-10T16:16:29.845Z,97033.84
2023-05-10T16:18:56.807Z,97037.59
2023-05-10T16:21:23.459Z,97044.81
2023-05-10T16:23:49.990Z,97035.81
2023-05-10T16:26:16.501Z,97043.19
2023-05-10T16:28:42.926Z,97036.91
2023-05-10T16:31:09.595Z,97040.91
2023-05-10T16:33:36.125Z,97047.78
2023-05-10T16:36:02.660Z,97048.03
2023-05-10T16:38:29.226Z,97042.50
2023-05-10T16:40:55.705Z,97047.19
2023-05-10T16:43:23.993Z,97045.13
2023-05-10T16:45:51.852Z,97042.75
2023-05-10T16:48:18.449Z,97047.94
2023-05-10T16:50:45.010Z,97048.13
2023-05-10T16:53:14.249Z,97043.03
2023-05-10T16:55:40.910Z,97044.66
2023-05-10T16:58:07.471Z,97041.06
2023-05-10T17:00:34.234Z,97043.44
2023-05-10T17:03:00.827Z,97042.00
2023-05-10T17:05:27.300Z,97037.94
2023-05-10T17:07:53.794Z,97046.25
2023-05-10T17:10:20.401Z,97034.25
2023-05-10T17:12:46.984Z,97039.63
2023-05-10T17:15:13.584Z,97043.53
2023-05-10T17:17:40.127Z,97038.09
2023-05-10T17:20:06.718Z,97037.13
2023-05-10T17:22:33.278Z,97045.72
2023-05-10T17:24:59.926Z,97031.97
2023-05-10T17:27:26.460Z,97039.34
2023-05-10T17:29:52.955Z,97029.66
2023-05-10T17:32:19.473Z,97027.19
2023-05-10T17:34:46.001Z,97020.72
2023-05-10T17:37:12.579Z,97018.19
2023-05-10T17:39:40.012Z,97025.72
2023-05-10T17:42:06.597Z,97019.69
2023-05-10T17:44:33.115Z,97027.34
2023-05-10T17:46:59.672Z,97026.00
2023-05-10T17:49:26.226Z,97022.59
2023-05-10T17:51:52.775Z,97023.59
2023-05-10T17:54:19.377Z,97026.03
2023-05-10T17:56:45.784Z,97023.84
2023-05-10T17:59:12.350Z,97023.84
2023-05-10T18:01:38.968Z,97040.31
2023-05-10T18:04:05.425Z,97036.25
2023-05-10T18:06:31.919Z,97043.44
2023-05-10T18:08:58.469Z,97039.72
2023-05-10T18:11:25.015Z,97040.50
2023-05-10T18:13:51.648Z,97032.56
2023-05-10T18:16:18.169Z,97040.91
2023-05-10T18:18:44.818Z,97041.50
2023-05-10T18:21:11.425Z,97038.34
2023-05-10T18:23:37.929Z,97048.97
2023-05-10T18:26:04.429Z,97048.47
2023-05-10T18:28:31.030Z,97044.47
2023-05-10T18:30:57.587Z,97047.44
2023-05-10T18:33:24.197Z,97040.75
2023-05-10T18:35:50.795Z,97052.53
2023-05-10T18:38:17.302Z,97055.00
2023-05-10T18:40:43.845Z,97057.03
2023-05-10T18:43:10.341Z,97058.16
2023-05-10T18:45:36.815Z,97061.22
2023-05-10T18:48:03.325Z,97019.84
2023-05-10T18:50:30.006Z,97015.34
2023-05-10T18:52:56.455Z,97015.16
2023-05-10T18:55:23.058Z,97021.91
2023-05-10T18:57:49.622Z,97016.34
2023-05-10T19:00:16.161Z,97028.66
2023-05-10T19:02:42.817Z,97025.59
2023-05-10T19:05:09.442Z,97032.09
2023-05-10T19:07:35.922Z,97027.66
2023-05-10T19:10:02.562Z,97032.75
2023-05-10T19:12:29.284Z,97031.81
2023-05-10T19:14:55.764Z,97033.44
2023-05-10T19:17:22.291Z,97067.31
2023-05-10T19:19:50.217Z,97070.09
2023-05-10T19:22:16.826Z,97077.81
2023-05-10T19:24:45.021Z,97073.25
2023-05-10T19:27:11.554Z,97070.88
2023-05-10T19:29:38.122Z,97082.44
2023-05-10T19:32:04.678Z,97084.63
2023-05-10T19:34:31.180Z,97078.00
2023-05-10T19:36:58.138Z,97079.19
2023-05-10T19:39:25.160Z,97082.88
2023-05-10T19:41:51.895Z,97085.09
2023-05-10T19:44:18.430Z,97078.63
2023-05-10T19:46:44.948Z,97085.75
2023-05-10T19:49:11.380Z,97078.03
2023-05-10T19:51:37.875Z,97076.09
2023-05-10T19:54:04.362Z,97084.56
2023-05-10T19:56:30.846Z,97082.28
2023-05-10T19:58:57.287Z,97072.50
2023-05-10T20:01:23.728Z,97079.47
2023-05-10T20:03:50.382Z,97078.38
2023-05-10T20:06:16.864Z,97084.22
2023-05-10T20:08:43.344Z,97080.16
2023-05-10T20:11:09.774Z,97078.47
2023-05-10T20:13:36.315Z,97082.06
2023-05-10T20:16:02.853Z,97088.81
2023-05-10T20:18:29.334Z,97081.50
2023-05-10T20:20:55.835Z,97082.19
2023-05-10T20:23:22.433Z,97087.72
2023-05-10T20:25:48.921Z,97085.50
2023-05-10T20:28:18.211Z,97090.69
2023-05-10T20:30:44.859Z,97093.56
2023-05-10T20:33:11.418Z,97090.66
2023-05-10T20:35:37.938Z,97092.63
2023-05-10T20:38:04.471Z,97091.94
2023-05-10T20:40:31.045Z,97093.84
2023-05-10T20:42:57.575Z,97096.78
2023-05-10T20:45:24.203Z,97086.00
2023-05-10T20:47:50.832Z,97087.94
2023-05-10T20:50:17.795Z,97096.19
2023-05-10T20:52:44.452Z,97093.97
2023-05-10T20:55:10.940Z,97095.16
2023-05-10T20:57:37.479Z,97088.06
2023-05-10T21:00:03.986Z,97092.56
2023-05-10T21:02:30.509Z,97092.19
2023-05-10T21:04:58.162Z,97092.13
2023-05-10T21:07:24.823Z,97098.38
2023-05-10T21:09:51.360Z,97101.09
2023-05-10T21:12:17.891Z,97105.22
2023-05-10T21:14:44.391Z,97102.03
2023-05-10T21:17:10.907Z,97097.72
2023-05-10T21:19:37.459Z,97098.22
2023-05-10T21:22:04.054Z,97097.19
2023-05-10T21:24:30.620Z,97103.41
2023-05-10T21:26:57.089Z,97097.69
2023-05-10T21:29:23.680Z,97100.69
2023-05-10T21:31:50.270Z,97092.81
2023-05-10T21:34:16.782Z,97096.03
2023-05-10T21:36:43.271Z,97093.13
2023-05-10T21:39:09.762Z,97099.25
2023-05-10T21:41:36.336Z,97097.22
2023-05-10T21:44:02.844Z,97087.19
2023-05-10T21:46:29.393Z,97086.34
2023-05-10T21:48:55.982Z,97082.25
2023-05-10T21:51:22.534Z,97086.34
2023-05-10T21:53:49.090Z,97068.66
2023-05-10T21:56:15.632Z,97082.25
2023-05-10T21:58:42.200Z,97076.50
2023-05-10T22:01:08.799Z,97087.78
2023-05-10T22:03:35.404Z,97087.00
2023-05-10T22:06:02.003Z,97084.28
2023-05-10T22:08:28.563Z,97075.81
2023-05-10T22:10:55.113Z,97077.59
2023-05-10T22:13:21.612Z,97076.22
2023-05-10T22:15:48.097Z,97078.34
2023-05-10T22:18:14.633Z,97070.72
2023-05-10T22:20:41.220Z,97068.50
2023-05-10T22:23:07.747Z,97069.03
2023-05-10T22:25:34.307Z,97071.56
2023-05-10T22:28:00.859Z,97090.84
2023-05-10T22:30:27.400Z,97074.28
2023-05-10T22:32:53.978Z,97081.00
2023-05-10T22:35:20.525Z,97084.75
2023-05-10T22:37:47.001Z,97084.47
2023-05-10T22:40:13.424Z,97081.16
2023-05-10T22:42:39.958Z,97081.00
2023-05-10T22:45:06.577Z,97079.38
2023-05-10T22:47:33.144Z,97075.31
2023-05-10T22:49:59.650Z,97079.31
2023-05-10T22:52:26.154Z,97075.66
2023-05-10T22:54:52.622Z,97082.94
2023-05-10T22:57:19.182Z,97077.69
